Time;durP1;ratioP1;P1;durP2;ratioP2;P2;SDS_P1;SDS_P2;PMS_P1;PMS_P2;Temp;Humidity;BMP_temperature;BMP_pressure;BME280_temperature;BME280_humidity;BME280_pressure;Samples;Min_cycle;Max_cycle;Signal;HPM_P1;HPM_P2
2021/05/18 00:00:57;;;;;;;14.55;10.52;;;;;;;16.83;73.79;99212.13;5049954;28;20041;-22
2021/05/18 00:03:23;;;;;;;12.30;9.82;;;;;;;16.39;75.07;99180.66;5049633;28;20039;-22
2021/05/18 00:05:53;;;;;;;16.77;11.55;;;;;;;16.71;74.99;99195.50;5049880;28;20029;-21
2021/05/18 00:08:21;;;;;;;14.27;10.88;;;;;;;16.97;74.21;99185.38;5049622;28;20032;-21
2021/05/18 00:13:34;;;;;;;14.60;10.35;;;;;;;16.73;74.28;99163.72;5049712;28;20043;-21
2021/05/18 00:16:00;;;;;;;12.27;10.45;;;;;;;16.41;74.99;99140.81;5049506;28;20040;-21
2021/05/18 00:18:25;;;;;;;15.00;10.80;;;;;;;16.37;75.49;99164.00;5049373;28;20029;-22
2021/05/18 00:20:51;;;;;;;15.32;11.10;;;;;;;16.63;74.00;99170.00;5049683;28;20118;-21
2021/05/18 00:23:16;;;;;;;13.70;10.38;;;;;;;16.67;73.38;99184.50;5049604;28;20078;-21
2021/05/18 00:25:42;;;;;;;14.55;11.30;;;;;;;16.33;74.28;99179.06;5049674;28;20116;-21
2021/05/18 00:28:08;;;;;;;16.15;11.20;;;;;;;16.85;72.27;99185.72;5049569;28;20036;-22
2021/05/18 00:30:34;;;;;;;15.65;10.43;;;;;;;16.72;72.15;99172.09;5049084;28;20113;-22
2021/05/18 00:33:00;;;;;;;15.05;10.75;;;;;;;16.43;73.99;99181.72;5049390;28;20053;-21
2021/05/18 00:35:25;;;;;;;15.40;11.38;;;;;;;17.05;72.85;99189.34;5049263;28;20459;-22
2021/05/18 00:37:51;;;;;;;16.60;11.65;;;;;;;16.89;72.79;99187.88;5049293;28;20100;-22
2021/05/18 00:40:18;;;;;;;15.98;11.35;;;;;;;17.15;71.78;99178.47;5048976;28;20029;-21
2021/05/18 00:42:49;;;;;;;14.77;11.45;;;;;;;16.97;72.10;99181.88;5049359;28;20029;-21
2021/05/18 00:45:15;;;;;;;17.30;12.52;;;;;;;17.10;72.36;99183.94;5048935;28;20051;-21
2021/05/18 00:47:40;;;;;;;19.23;12.68;;;;;;;17.35;71.95;99179.38;5049191;28;20028;-21
2021/05/18 00:50:06;;;;;;;17.13;11.70;;;;;;;16.99;72.71;99179.69;5049101;28;20029;-21
2021/05/18 00:52:32;;;;;;;16.73;11.40;;;;;;;17.06;72.98;99209.78;5048632;28;20120;-21
2021/05/18 00:55:16;;;;;;;17.85;12.02;;;;;;;17.09;73.01;99203.06;5047770;28;20031;-20
2021/05/18 01:00:26;;;;;;;14.60;11.27;;;;;;;16.76;74.49;99217.00;5048807;28;20036;-21
2021/05/18 01:02:51;;;;;;;15.45;10.50;;;;;;;16.46;75.09;99208.03;5048984;28;20033;-21
2021/05/18 01:05:21;;;;;;;13.52;10.05;;;;;;;16.36;74.29;99210.78;5049038;28;20025;-21
2021/05/18 01:07:49;;;;;;;13.77;9.63;;;;;;;16.10;75.58;99231.66;5048443;28;20504;-21
2021/05/18 01:10:15;;;;;;;;;;;;;;;15.85;76.44;99246.00;5049113;28;20036;-21
2021/05/18 01:12:41;;;;;;;14.05;9.98;;;;;;;15.81;76.19;99223.41;5048771;28;19919;-22
2021/05/18 01:15:07;;;;;;;15.40;11.18;;;;;;;16.12;76.21;99234.06;5048721;28;20459;-22
2021/05/18 01:17:32;;;;;;;13.65;10.45;;;;;;;16.50;74.58;99231.72;5048451;28;20035;-21
2021/05/18 01:20:07;;;;;;;14.38;11.15;;;;;;;16.68;73.97;99215.72;5048416;28;20033;-21
2021/05/18 01:22:33;;;;;;;14.32;10.52;;;;;;;16.77;73.70;99245.53;5048074;28;20029;-22
2021/05/18 01:24:58;;;;;;;13.70;10.30;;;;;;;16.27;75.67;99242.88;5048971;28;20032;-21
2021/05/18 01:27:24;;;;;;;16.98;10.85;;;;;;;16.09;76.27;99261.53;5048385;28;20025;-22
2021/05/18 01:29:49;;;;;;;15.15;11.18;;;;;;;15.40;77.53;99244.97;5048401;28;20036;-21
2021/05/18 01:32:19;;;;;;;14.57;11.30;;;;;;;15.87;76.92;99273.41;5047972;28;20032;-21
2021/05/18 01:34:44;;;;;;;15.48;10.80;;;;;;;15.54;78.23;99264.84;5048217;28;20186;-21
2021/05/18 01:37:10;;;;;;;15.00;11.48;;;;;;;15.63;78.40;99284.72;5048051;28;20119;-21
2021/05/18 01:39:53;;;;;;;13.68;10.60;;;;;;;15.71;77.39;99277.19;5048168;28;20112;-22
2021/05/18 01:45:22;;;;;;;16.02;11.02;;;;;;;15.75;77.79;99289.03;5065728;28;20029;-21
2021/05/18 01:47:55;;;;;;;15.90;11.85;;;;;;;15.70;78.00;99303.25;5051338;28;20826;-21
2021/05/18 01:50:22;;;;;;;22.48;11.95;;;;;;;15.89;77.54;99300.81;5047565;28;20090;-22
2021/05/18 01:52:48;;;;;;;15.73;11.80;;;;;;;15.91;76.75;99295.97;5048086;28;20041;-22
2021/05/18 01:55:18;;;;;;;15.90;11.20;;;;;;;15.92;76.83;99316.44;5047826;28;20294;-21
2021/05/18 01:57:44;;;;;;;14.35;11.77;;;;;;;15.79;77.33;99306.22;5048080;28;20099;-22
2021/05/18 02:00:13;;;;;;;16.30;12.20;;;;;;;15.66;78.28;99303.00;5047670;28;20020;-22
2021/05/18 02:02:38;;;;;;;15.88;12.38;;;;;;;15.54;78.99;99318.59;5048254;28;20114;-22
2021/05/18 02:05:07;;;;;;;15.00;11.48;;;;;;;15.60;78.82;99295.22;5047065;28;20036;-22
2021/05/18 02:07:34;;;;;;;15.75;11.50;;;;;;;15.88;78.33;99309.97;5047690;28;20331;-22
2021/05/18 02:10:00;;;;;;;14.80;11.05;;;;;;;15.98;77.28;99303.78;5047602;28;20053;-20
2021/05/18 02:12:26;;;;;;;15.63;11.50;;;;;;;16.07;77.60;99313.69;5047511;28;20045;-22
2021/05/18 02:14:55;;;;;;;15.32;11.57;;;;;;;15.97;78.08;99308.34;5047488;28;20524;-22
2021/05/18 02:25:10;;;;;;;14.02;10.77;;;;;;;16.28;76.69;99343.22;5047374;28;20114;-21
2021/05/18 02:27:36;;;;;;;15.27;10.57;;;;;;;16.19;77.09;99332.22;5047331;28;20025;-22
2021/05/18 02:30:02;;;;;;;14.45;10.82;;;;;;;16.06;77.35;99338.97;5047174;28;20039;-21
2021/05/18 02:32:28;;;;;;;14.77;10.50;;;;;;;15.78;78.10;99313.50;5047266;28;20483;-22
2021/05/18 02:34:54;;;;;;;16.73;11.30;;;;;;;15.76;78.54;99317.53;5047143;28;20104;-22
2021/05/18 02:37:20;;;;;;;15.40;11.13;;;;;;;16.29;76.43;99342.16;5047359;28;20025;-20
2021/05/18 02:39:45;;;;;;;14.63;11.00;;;;;;;16.10;76.85;99339.25;5045774;28;20045;-21
2021/05/18 02:42:11;;;;;;;18.52;11.55;;;;;;;16.02;77.34;99335.22;5047220;28;20145;-22
2021/05/18 02:44:47;;;;;;;17.08;11.82;;;;;;;16.29;76.62;99344.84;5047107;28;20036;-23
2021/05/18 02:49:57;;;;;;;14.88;11.45;;;;;;;16.61;74.41;99338.22;5047467;28;20055;-21
2021/05/18 02:52:23;;;;;;;13.27;10.25;;;;;;;16.27;75.33;99338.94;5046893;28;20132;-22
2021/05/18 02:54:51;;;;;;;14.60;10.18;;;;;;;15.97;76.40;99339.81;5047332;28;20057;-21
2021/05/18 02:57:31;;;;;;;14.10;11.13;;;;;;;15.89;76.95;99351.91;5046957;28;20036;-22
2021/05/18 02:59:58;;;;;;;15.30;11.10;;;;;;;15.90;76.86;99344.66;5047128;28;20108;-21
2021/05/18 03:02:23;;;;;;;16.85;11.88;;;;;;;16.20;76.25;99359.91;5046890;28;20091;-21
2021/05/18 03:04:49;;;;;;;15.10;11.23;;;;;;;16.50;75.31;99352.84;5046529;28;20449;-21
2021/05/18 03:07:15;;;;;;;16.17;10.85;;;;;;;16.18;75.11;99345.94;5047013;28;20475;-21
2021/05/18 03:09:40;;;;;;;15.50;11.18;;;;;;;15.93;76.35;99361.03;5046930;28;20070;-22
2021/05/18 03:12:06;;;;;;;14.48;11.07;;;;;;;16.09;75.84;99351.06;5046869;28;20090;-22
2021/05/18 03:14:31;;;;;;;13.43;10.40;;;;;;;15.98;76.12;99341.44;5045342;28;20103;-22
2021/05/18 03:16:57;;;;;;;16.08;10.73;;;;;;;16.33;74.79;99337.03;5046821;28;20033;-22
2021/05/18 03:19:22;;;;;;;13.15;10.23;;;;;;;16.27;74.94;99339.72;5032810;28;20465;-21
2021/05/18 03:21:48;;;;;;;14.48;11.27;;;;;;;16.01;75.85;99359.69;5050877;28;20036;-21
2021/05/18 03:24:14;;;;;;;13.13;10.35;;;;;;;16.24;75.05;99366.34;5050681;28;20412;-21
2021/05/18 03:26:45;;;;;;;16.27;11.20;;;;;;;16.41;74.35;99353.41;5050701;28;20461;-21
2021/05/18 03:29:22;;;;;;;14.40;9.95;;;;;;;16.32;75.11;99363.09;5050750;28;20033;-22
2021/05/18 03:34:36;;;;;;;13.65;10.25;;;;;;;15.88;76.73;99355.69;5050691;28;20508;-21
2021/05/18 03:37:14;;;;;;;15.85;11.05;;;;;;;16.37;75.08;99338.09;5050377;28;20408;-21
2021/05/18 03:39:40;;;;;;;14.25;10.52;;;;;;;16.32;74.58;99349.66;5050460;28;20025;-22
2021/05/18 03:42:10;;;;;;;13.45;10.20;;;;;;;16.57;73.16;99350.63;5050281;28;20041;-21
2021/05/18 03:52:34;;;;;;;15.40;10.75;;;;;;;16.85;71.92;99344.59;5049915;28;20068;-20
2021/05/18 04:12:06;;;;;;;13.70;10.20;;;;;;;16.78;73.44;99373.72;5049384;28;20094;-21
2021/05/18 04:17:16;;;;;;;14.00;10.63;;;;;;;16.80;73.75;99389.59;5050237;28;19970;-20
2021/05/18 04:20:24;;;;;;;15.05;10.00;;;;;;;16.82;73.50;99366.72;5049699;28;20029;-21
2021/05/18 04:22:46;;;;;;;14.90;10.68;;;;;;;16.87;73.65;99369.38;5049159;28;20088;-21
2021/05/18 04:26:07;;;;;;;12.25;9.88;;;;;;;16.56;74.69;99382.13;5049521;28;20033;-22
2021/05/18 05:07:02;;;;;;;4.88;2.13;;;;;;;16.84;68.86;99398.75;5048815;28;20505;-21
2021/05/18 05:09:33;;;;;;;6.68;2.20;;;;;;;16.67;68.95;99396.34;5048647;28;20147;-22
2021/05/18 05:12:38;;;;;;;4.70;1.83;;;;;;;16.83;68.21;99395.25;5048864;28;20036;-22
2021/05/18 05:15:02;;;;;;;4.25;2.20;;;;;;;16.97;68.28;99368.50;5048601;28;20052;-22
2021/05/18 05:17:28;;;;;;;7.05;2.75;;;;;;;17.61;66.49;99403.66;5048687;28;20130;-21
2021/05/18 05:19:53;;;;;;;4.43;2.30;;;;;;;17.45;66.66;99408.38;5048545;28;20029;-22
2021/05/18 05:22:19;;;;;;;3.85;1.90;;;;;;;17.26;67.13;99403.66;5048332;28;20114;-22
2021/05/18 05:24:45;;;;;;;4.25;2.13;;;;;;;17.60;67.17;99419.03;5048294;28;20029;-22
2021/05/18 05:27:10;;;;;;;7.93;2.47;;;;;;;17.43;64.51;99400.56;5048297;28;20036;-21
2021/05/18 05:29:36;;;;;;;5.45;2.67;;;;;;;17.77;65.67;99413.22;5048453;28;20032;-24
2021/05/18 05:32:02;;;;;;;5.85;2.97;;;;;;;18.10;64.08;99397.31;5048239;28;20065;-24
2021/05/18 05:34:27;;;;;;;6.65;3.13;;;;;;;18.50;63.19;99402.59;5048018;28;20025;-24
2021/05/18 05:36:53;;;;;;;7.15;3.50;;;;;;;18.55;61.96;99407.94;5046789;28;20028;-24
2021/05/18 05:41:44;;;;;;;3.65;2.40;;;;;;;18.34;63.08;99416.25;5046469;28;20837;-24
2021/05/18 05:44:09;;;;;;;10.90;3.83;;;;;;;18.22;63.96;99396.94;5048455;28;20536;-25
2021/05/18 05:46:35;;;;;;;4.57;2.30;;;;;;;18.80;62.74;99402.25;5047788;28;20138;-24
2021/05/18 05:49:00;;;;;;;3.00;1.98;;;;;;;18.34;62.34;99416.25;5047590;28;20060;-24
2021/05/18 05:51:27;;;;;;;4.53;2.40;;;;;;;18.51;63.73;99393.38;5047480;28;20080;-23
2021/05/18 05:53:53;;;;;;;5.43;2.50;;;;;;;18.72;64.16;99410.19;5048482;28;20035;-24
2021/05/18 05:56:19;;;;;;;4.60;2.20;;;;;;;18.74;61.96;99425.00;5047525;28;20067;-24
2021/05/18 05:58:45;;;;;;;3.38;2.22;;;;;;;18.35;63.33;99444.88;5046679;28;20025;-23
2021/05/18 06:01:11;;;;;;;7.00;2.80;;;;;;;18.95;63.76;99449.09;5046599;28;20095;-24
2021/05/18 06:03:37;;;;;;;5.38;2.58;;;;;;;18.56;61.31;99452.75;5047760;28;20036;-24
2021/05/18 06:06:03;;;;;;;6.00;2.65;;;;;;;18.84;61.10;99456.53;5046361;28;20036;-24
2021/05/18 06:08:29;;;;;;;4.63;2.90;;;;;;;18.71;60.66;99446.38;5047483;28;20116;-23
2021/05/18 06:11:02;;;;;;;7.43;3.25;;;;;;;18.78;60.53;99446.84;5047604;28;20128;-24
2021/05/18 06:35:27;;;;;;;5.28;3.72;;;;;;;18.74;57.65;99456.59;5047226;28;20048;-23
2021/05/18 06:43:05;;;;;;;4.60;2.85;;;;;;;19.24;55.67;99465.97;5047193;28;20044;-24
2021/05/18 06:48:15;;;;;;;4.38;2.90;;;;;;;19.03;56.55;99473.56;5047348;28;20037;-24
2021/05/18 06:50:40;;;;;;;6.43;3.90;;;;;;;19.11;57.14;99466.72;5046559;28;20049;-24
2021/05/18 06:53:06;;;;;;;5.82;3.28;;;;;;;18.80;56.00;99482.50;5046874;28;20029;-24
2021/05/18 06:55:33;;;;;;;4.65;3.28;;;;;;;18.67;57.12;99460.47;5047029;28;20033;-24
2021/05/18 06:58:03;;;;;;;4.25;3.08;;;;;;;18.73;56.53;99490.91;5046924;28;20021;-25
2021/05/18 07:00:29;;;;;;;6.38;3.17;;;;;;;18.69;56.22;99487.16;5047170;28;20151;-25
2021/05/18 07:02:57;;;;;;;5.50;2.90;;;;;;;18.29;56.43;99478.41;5046970;28;20040;-24
2021/05/18 07:08:04;;;;;;;8.27;5.13;;;;;;;18.54;57.03;99479.22;5046882;28;20125;-24
2021/05/18 07:10:30;;;;;;;5.45;3.55;;;;;;;18.92;57.70;99487.47;5046599;28;20037;-23
2021/05/18 07:12:56;;;;;;;5.78;3.45;;;;;;;18.75;58.85;99469.81;5047176;28;20132;-24
2021/05/18 07:15:21;;;;;;;6.88;3.25;;;;;;;18.42;56.67;99472.31;5046817;28;20061;-23
2021/05/18 07:17:47;;;;;;;5.35;3.58;;;;;;;18.32;57.79;99458.91;5046814;28;20035;-24
2021/05/18 07:20:13;;;;;;;5.03;3.60;;;;;;;18.26;58.47;99474.34;5045361;28;20049;-24
2021/05/18 07:22:38;;;;;;;5.00;2.95;;;;;;;17.85;57.77;99457.72;5046659;28;20060;-21
2021/05/18 07:25:04;;;;;;;8.63;3.33;;;;;;;17.69;59.17;99443.50;5046828;28;20518;-22
2021/05/18 07:27:30;;;;;;;4.65;2.80;;;;;;;17.68;58.32;99464.28;5046812;28;20059;-22
2021/05/18 07:29:56;;;;;;;5.47;3.08;;;;;;;17.44;59.52;99447.19;5046766;28;20466;-22
2021/05/18 07:32:21;;;;;;;5.15;2.90;;;;;;;17.03;59.25;99463.56;5046747;28;20033;-21
2021/05/18 07:34:48;;;;;;;5.75;3.08;;;;;;;17.11;59.97;99471.09;5047032;28;20036;-22
2021/05/18 07:37:14;;;;;;;6.15;3.30;;;;;;;17.23;59.25;99468.88;5046746;28;20148;-22
2021/05/18 07:39:40;;;;;;;6.05;3.70;;;;;;;17.12;60.33;99480.78;5046805;28;20158;-22
2021/05/18 07:42:05;;;;;;;6.18;3.45;;;;;;;17.35;59.28;99465.03;5046750;28;20470;-22
2021/05/18 07:44:31;;;;;;;6.35;3.38;;;;;;;17.46;59.49;99467.38;5046284;28;20024;-22
2021/05/18 07:46:56;;;;;;;5.55;3.20;;;;;;;17.54;59.04;99466.00;5046297;28;20036;-21
2021/05/18 07:59:14;;;;;;;3.97;2.63;;;;;;;17.33;57.50;99457.22;5045942;28;20655;-21
2021/05/18 08:00:34;;;;;;;6.40;3.88;;;;;;;18.31;58.21;99459.19;5046534;28;20146;-22
2021/05/18 08:05:36;;;;;;;5.15;3.38;;;;;;;19.25;54.94;99473.00;5050269;28;20029;-22
2021/05/18 08:08:01;;;;;;;4.40;2.42;;;;;;;19.61;52.91;99472.50;5049931;28;20036;-22
2021/05/18 08:12:56;;;;;;;2.78;1.98;;;;;;;19.15;52.54;99489.38;5049928;28;20064;-22
2021/05/18 10:36:36;;;;;;;3.58;1.75;;;;;;;20.87;42.55;99494.22;5047442;28;20036;-22
2021/05/18 10:38:54;;;;;;;2.92;1.60;;;;;;;21.31;42.89;99502.84;5047801;28;20033;-21
2021/05/18 10:41:27;;;;;;;5.45;1.90;;;;;;;22.02;42.52;99484.13;5029889;28;20044;-22
2021/05/18 10:43:56;;;;;;;3.28;1.20;;;;;;;22.48;37.59;99492.28;5047323;28;20029;-21
2021/05/18 10:46:23;;;;;;;2.67;1.40;;;;;;;22.83;37.87;99485.84;5047187;28;20151;-22
2021/05/18 10:48:53;;;;;;;2.88;1.50;;;;;;;23.02;37.68;99493.75;5046966;28;20029;-22
2021/05/18 10:51:30;;;;;;;3.53;1.30;;;;;;;23.19;37.02;99478.59;5046886;28;20486;-22
2021/05/18 10:54:18;;;;;;;0.80;0.50;;;;;;;22.74;32.85;99509.50;5047421;28;20040;-22
2021/05/18 10:56:53;;;;;;;3.88;0.65;;;;;;;22.85;32.27;99494.47;5047165;28;20047;-21
2021/05/18 10:59:41;;;;;;;1.77;0.60;;;;;;;22.80;32.90;99497.38;5046871;28;20485;-22
2021/05/18 11:02:17;;;;;;;3.78;0.63;;;;;;;22.81;31.81;99501.66;5047149;28;20067;-21
2021/05/18 11:04:47;;;;;;;0.85;0.52;;;;;;;23.12;33.43;99481.78;5047122;28;20037;-21
2021/05/18 11:07:19;;;;;;;0.75;0.50;;;;;;;22.85;32.36;99482.81;5046828;28;20401;-22
2021/05/18 11:09:44;;;;;;;1.38;0.60;;;;;;;23.18;31.93;99499.56;5046781;28;20025;-21
2021/05/18 11:12:11;;;;;;;3.50;0.90;;;;;;;23.01;32.60;99497.63;5049625;28;20029;-20
2021/05/18 11:14:58;;;;;;;2.30;0.73;;;;;;;23.04;32.68;99507.84;5046897;28;20088;-21
2021/05/18 11:17:32;;;;;;;2.17;0.60;;;;;;;23.08;31.82;99505.31;5047170;28;20025;-20
2021/05/18 11:20:08;;;;;;;1.38;0.50;;;;;;;22.81;31.57;99498.16;5046759;28;20029;-22
2021/05/18 11:25:50;;;;;;;3.50;0.57;;;;;;;23.13;32.75;99505.16;5046785;28;20040;-21
2021/05/18 11:28:29;;;;;;;1.77;0.55;;;;;;;23.25;31.60;99491.75;5046525;28;20025;-21
2021/05/18 11:31:16;;;;;;;3.03;0.50;;;;;;;23.25;31.56;99507.25;5046615;28;20038;-20
2021/05/18 11:33:45;;;;;;;1.83;0.40;;;;;;;23.85;32.54;99501.09;5047296;28;20457;-20
2021/05/18 11:36:31;;;;;;;0.70;0.50;;;;;;;24.39;30.38;99492.50;5046486;28;20037;-20
2021/05/18 11:38:57;;;;;;;2.90;0.50;;;;;;;23.64;30.69;99491.94;5048233;28;20052;-21
2021/05/18 11:41:26;;;;;;;3.03;0.75;;;;;;;23.51;32.01;99487.44;5050641;28;20057;-21
2021/05/18 11:43:52;;;;;;;4.15;0.50;;;;;;;23.06;30.69;99499.38;5050531;28;20029;-20
2021/05/18 11:46:18;;;;;;;1.67;0.40;;;;;;;22.83;32.14;99495.94;5050500;28;20032;-20
2021/05/18 11:49:00;;;;;;;2.17;0.40;;;;;;;23.04;30.58;99479.84;5050702;28;20342;-21
2021/05/18 11:51:26;;;;;;;0.60;0.40;;;;;;;23.78;29.22;99500.78;5048893;28;20053;-21
2021/05/18 11:53:52;;;;;;;5.70;0.55;;;;;;;23.82;29.25;99488.13;5050192;28;20025;-21
2021/05/18 11:56:26;;;;;;;1.48;0.40;;;;;;;23.61;28.63;99468.88;5050086;28;20039;-21
2021/05/18 11:59:10;;;;;;;2.67;0.50;;;;;;;24.36;30.53;99468.63;5050548;28;20090;-21
2021/05/18 12:01:37;;;;;;;5.38;0.63;;;;;;;24.04;28.40;99478.97;5050215;28;20029;-21
2021/05/18 12:04:22;;;;;;;3.23;0.60;;;;;;;24.03;27.75;99482.03;5048828;28;20028;-21
2021/05/18 12:07:03;;;;;;;3.25;0.47;;;;;;;24.16;27.63;99472.06;5049897;28;20024;-21
2021/05/18 12:09:29;;;;;;;1.77;0.30;;;;;;;24.10;27.55;99460.53;5049830;28;20393;-21
2021/05/18 12:12:01;;;;;;;4.00;0.35;;;;;;;24.49;25.40;99461.38;5049953;28;20033;-21
2021/05/18 12:14:28;;;;;;;3.75;0.40;;;;;;;24.56;25.09;99477.25;5049537;28;20025;-20
2021/05/18 12:16:54;;;;;;;4.18;0.80;;;;;;;24.28;26.18;99466.75;5049916;28;20029;-21
2021/05/18 12:19:20;;;;;;;0.70;0.22;;;;;;;24.38;25.83;99476.50;5050301;28;20148;-21
2021/05/18 12:21:48;;;;;;;3.67;0.32;;;;;;;24.77;25.73;99461.75;5049695;28;20559;-21
2021/05/18 12:24:20;;;;;;;1.55;0.73;;;;;;;25.14;24.99;99475.66;5049658;28;20939;-21
2021/05/18 12:26:58;;;;;;;2.50;0.28;;;;;;;25.05;24.24;99485.84;5049561;28;20036;-21
2021/05/18 12:29:37;;;;;;;6.10;0.40;;;;;;;24.19;25.41;99447.69;5049321;28;20052;-21
2021/05/18 12:32:33;;;;;;;1.77;0.50;;;;;;;24.46;25.04;99472.94;5049746;28;20032;-21
2021/05/18 12:35:04;;;;;;;3.50;0.40;;;;;;;24.80;26.15;99472.00;5049479;28;20112;-21
2021/05/18 12:37:51;;;;;;;2.45;0.40;;;;;;;24.30;25.22;99469.94;5049375;28;20068;-21
2021/05/18 12:40:19;;;;;;;9.80;0.80;;;;;;;24.54;27.80;99471.31;5049574;28;20062;-21
2021/05/18 12:42:46;;;;;;;3.08;0.32;;;;;;;24.85;26.29;99474.56;5049302;28;20099;-21
2021/05/18 12:45:20;;;;;;;4.32;0.40;;;;;;;24.92;24.30;99478.69;5049336;28;20037;-21
2021/05/18 12:47:52;;;;;;;1.17;0.20;;;;;;;24.70;23.69;99471.56;5048994;28;20057;-21
2021/05/18 12:50:18;;;;;;;0.85;0.20;;;;;;;24.80;23.59;99463.81;5048380;28;20032;-21
2021/05/18 12:52:45;;;;;;;2.08;0.22;;;;;;;24.71;23.35;99463.06;5049441;28;20071;-21
2021/05/18 12:55:27;;;;;;;0.65;0.10;;;;;;;24.70;22.88;99477.81;5049093;28;20051;-21
2021/05/18 12:57:54;;;;;;;0.85;0.40;;;;;;;24.94;23.81;99471.78;5049101;28;20112;-21
2021/05/18 13:00:35;;;;;;;2.45;0.20;;;;;;;24.51;23.07;99463.81;5048716;28;20029;-21
2021/05/18 13:03:19;;;;;;;1.45;0.32;;;;;;;24.59;23.68;99454.78;5049015;28;20033;-21
2021/05/18 13:05:45;;;;;;;2.35;0.30;;;;;;;24.57;23.84;99465.22;5049082;28;20128;-21
2021/05/18 13:08:19;;;;;;;2.70;0.50;;;;;;;24.30;25.71;99467.22;5048769;28;20025;-21
2021/05/18 13:13:37;;;;;;;0.70;0.35;;;;;;;24.52;25.27;99470.84;5049051;28;20033;-21
2021/05/18 13:16:11;;;;;;;5.93;0.70;;;;;;;24.40;24.25;99477.75;5049266;28;20037;-21
2021/05/18 13:18:40;;;;;;;1.55;0.30;;;;;;;24.90;24.55;99467.31;5048512;28;20064;-21
2021/05/18 13:21:06;;;;;;;1.20;0.28;;;;;;;24.16;23.70;99458.44;5047257;28;20033;-21
2021/05/18 13:23:43;;;;;;;3.33;0.40;;;;;;;24.77;24.45;99472.66;5048433;28;20402;-21
2021/05/18 13:26:31;;;;;;;3.35;0.22;;;;;;;24.80;25.59;99465.75;5048526;28;20111;-21
2021/05/18 13:29:03;;;;;;;1.17;0.13;;;;;;;24.53;24.26;99464.28;5048342;28;20485;-21
2021/05/18 13:31:29;;;;;;;1.48;0.47;;;;;;;24.94;24.76;99466.31;5048342;28;20053;-21
2021/05/18 13:33:55;;;;;;;1.25;0.30;;;;;;;24.41;24.58;99465.72;5048529;28;20082;-20
2021/05/18 13:36:21;;;;;;;2.13;0.55;;;;;;;24.33;25.01;99468.47;5048294;28;20032;-20
2021/05/18 13:38:46;;;;;;;1.02;0.20;;;;;;;24.27;23.52;99456.94;5048570;28;20035;-22
2021/05/18 13:41:12;;;;;;;3.28;0.30;;;;;;;23.90;24.48;99466.66;5048229;28;20033;-22
2021/05/18 13:43:37;;;;;;;3.85;0.50;;;;;;;23.98;25.38;99455.75;5048312;28;20020;-21
2021/05/18 13:46:03;;;;;;;2.15;0.43;;;;;;;24.10;23.93;99459.72;5048011;28;20033;-21
2021/05/18 13:48:28;;;;;;;2.55;0.35;;;;;;;23.85;25.54;99454.00;5047673;28;20021;-21
2021/05/18 13:50:54;;;;;;;0.55;0.20;;;;;;;24.57;24.06;99478.84;5046632;28;20470;-20
2021/05/18 13:53:22;;;;;;;3.55;0.22;;;;;;;24.34;22.74;99476.34;5048488;28;20787;-21
2021/05/18 13:55:47;;;;;;;1.45;0.35;;;;;;;23.99;22.60;99470.97;5048294;28;20056;-21
2021/05/18 13:58:13;;;;;;;3.85;0.50;;;;;;;24.41;24.18;99468.44;5047768;28;20037;-21
2021/05/18 14:00:38;;;;;;;1.35;0.32;;;;;;;24.60;22.67;99489.09;5047276;28;20033;-21
2021/05/18 14:03:04;;;;;;;3.58;0.50;;;;;;;24.94;23.28;99471.78;5046981;28;20566;-23
2021/05/18 14:05:29;;;;;;;1.98;0.17;;;;;;;25.16;23.59;99480.81;5047779;28;20154;-22
2021/05/18 14:08:30;;;;;;;2.25;0.30;;;;;;;25.18;24.90;99481.28;5047738;28;20029;-22
2021/05/18 14:10:56;;;;;;;3.88;0.50;;;;;;;24.75;23.74;99485.84;5047735;28;20090;-21
2021/05/18 14:13:22;;;;;;;2.15;0.30;;;;;;;24.47;23.11;99480.75;5047583;28;20041;-22
2021/05/18 14:15:47;;;;;;;5.50;0.30;;;;;;;25.03;23.94;99488.13;5047714;28;20067;-22
2021/05/18 14:18:13;;;;;;;7.63;0.77;;;;;;;25.05;23.75;99491.31;5047311;28;20065;-21
2021/05/18 14:20:39;;;;;;;0.68;0.30;;;;;;;25.28;22.51;99491.84;5047356;28;20063;-21
2021/05/18 14:23:05;;;;;;;1.90;0.22;;;;;;;24.93;23.55;99502.09;5047834;28;20151;-22
2021/05/18 14:25:30;;;;;;;2.38;0.32;;;;;;;25.13;24.68;99485.00;5047794;28;20021;-22
2021/05/18 14:27:56;;;;;;;5.65;0.45;;;;;;;24.97;23.90;99494.88;5047076;28;20029;-21
2021/05/18 14:30:21;;;;;;;2.65;0.22;;;;;;;24.35;23.40;99494.28;5046992;28;20033;-21
2021/05/18 14:32:47;;;;;;;2.10;0.32;;;;;;;24.41;24.92;99486.72;5046282;28;20063;-22
2021/05/18 14:35:13;;;;;;;1.20;0.45;;;;;;;24.58;25.02;99494.06;5047256;28;20028;-21
2021/05/18 14:37:39;;;;;;;1.52;0.30;;;;;;;24.90;25.72;99508.22;5047437;28;20025;-21
2021/05/18 14:40:23;;;;;;;4.55;0.40;;;;;;;24.42;25.23;99500.03;5047267;28;20059;-21
2021/05/18 14:45:28;;;;;;;3.08;0.40;;;;;;;23.62;27.25;99496.88;5047380;28;20040;-21
2021/05/18 14:55:50;;;;;;;4.28;0.40;;;;;;;23.41;30.78;99543.78;5047082;28;20483;-21
2021/05/18 14:58:16;;;;;;;4.28;1.17;;;;;;;23.13;32.38;99548.69;5047011;28;20029;-21
2021/05/18 15:00:42;;;;;;;5.97;0.52;;;;;;;23.47;32.62;99552.59;5046876;28;20025;-21
2021/05/18 15:03:09;;;;;;;2.08;0.45;;;;;;;23.29;32.56;99556.41;5046973;28;20029;-22
2021/05/18 15:05:34;;;;;;;2.28;0.40;;;;;;;23.24;33.04;99552.69;5047031;28;20036;-22
2021/05/18 15:08:00;;;;;;;2.95;1.45;;;;;;;23.49;32.24;99544.91;5045688;28;20028;-22
2021/05/18 15:10:27;;;;;;;2.05;1.30;;;;;;;23.08;31.91;99540.66;5028950;28;20033;-21
2021/05/18 15:12:52;;;;;;;1.98;0.45;;;;;;;22.99;32.21;99527.00;5048284;28;20060;-21
2021/05/18 15:15:18;;;;;;;1.60;0.40;;;;;;;23.12;32.50;99519.88;5050938;28;20087;-22
2021/05/18 15:17:44;;;;;;;2.55;0.40;;;;;;;23.24;31.60;99539.09;5050782;28;20033;-21
2021/05/18 15:20:10;;;;;;;3.42;0.98;;;;;;;23.24;32.06;99535.59;5050539;28;20060;-19
2021/05/18 15:22:37;;;;;;;1.58;0.32;;;;;;;23.06;30.31;99519.22;5051019;28;20033;-22
2021/05/18 15:25:03;;;;;;;2.50;0.50;;;;;;;23.19;31.67;99544.69;5050909;28;20033;-21
2021/05/18 15:27:29;;;;;;;1.80;0.60;;;;;;;23.16;31.54;99539.88;5051161;28;20492;-22
2021/05/18 15:29:54;;;;;;;1.98;0.40;;;;;;;23.09;31.03;99525.97;5051070;28;20045;-22
2021/05/18 15:32:20;;;;;;;1.08;0.43;;;;;;;23.20;29.78;99532.69;5050367;28;20508;-21
2021/05/18 15:34:45;;;;;;;0.55;0.30;;;;;;;22.99;28.46;99526.22;5050519;28;20037;-23
2021/05/18 15:37:13;;;;;;;1.38;0.28;;;;;;;22.95;29.81;99536.13;5050585;28;20500;-22
2021/05/18 15:39:39;;;;;;;1.45;0.20;;;;;;;23.01;29.60;99523.97;5050708;28;20591;-21
2021/05/18 15:42:04;;;;;;;1.33;0.68;;;;;;;23.38;29.24;99544.41;5050549;28;20026;-22
2021/05/18 15:44:30;;;;;;;0.90;0.20;;;;;;;23.35;30.05;99534.16;5049972;28;20491;-21
2021/05/18 15:46:55;;;;;;;3.28;0.38;;;;;;;23.60;30.72;99556.28;5050350;28;20413;-21
2021/05/18 15:49:22;;;;;;;2.78;0.20;;;;;;;23.44;30.43;99545.06;5050307;28;20094;-22
2021/05/18 15:51:47;;;;;;;0.30;0.20;;;;;;;23.06;30.35;99540.16;5050579;28;20052;-22
2021/05/18 15:54:13;;;;;;;1.45;0.30;;;;;;;23.16;31.49;99548.03;5050051;28;20036;-21
2021/05/18 15:56:38;;;;;;;0.50;0.10;;;;;;;23.18;30.64;99556.69;5050279;28;20029;-21
2021/05/18 15:59:04;;;;;;;2.78;0.70;;;;;;;22.90;32.85;99555.28;5050284;28;20032;-22
2021/05/18 16:01:29;;;;;;;23.02;13.07;;;;;;;23.04;33.15;99550.56;5049886;28;20041;-21
2021/05/18 16:03:55;;;;;;;6.38;2.92;;;;;;;23.09;34.30;99557.78;5049920;28;20120;-21
2021/05/18 16:06:23;;;;;;;5.18;1.63;;;;;;;23.01;33.57;99553.91;5049973;28;20043;-21
2021/05/18 16:11:14;;;;;;;3.55;0.90;;;;;;;22.90;34.57;99549.84;5050250;28;20033;-21
2021/05/18 16:13:40;;;;;;;9.63;2.53;;;;;;;22.69;34.90;99555.81;5050235;28;20823;-22
2021/05/18 16:16:10;;;;;;;21.20;9.85;;;;;;;22.25;31.66;99566.44;5049754;28;20033;-22
2021/05/18 16:18:36;;;;;;;3.13;0.80;;;;;;;21.93;29.03;99540.28;5049804;28;20043;-21
2021/05/18 16:21:02;;;;;;;13.75;6.88;;;;;;;21.98;30.96;99570.00;5050195;28;20922;-22
2021/05/18 16:23:28;;;;;;;13.38;6.10;;;;;;;22.04;32.79;99576.94;5050066;28;20033;-22
2021/05/18 16:25:55;;;;;;;25.75;12.98;;;;;;;21.70;32.17;99573.91;5048861;28;20036;-22
2021/05/18 16:28:20;;;;;;;13.47;5.00;;;;;;;21.42;30.76;99546.81;5048065;28;20032;-23
2021/05/18 16:30:47;;;;;;;44.80;22.15;;;;;;;21.93;32.04;99566.63;5049626;28;20267;-23
2021/05/18 16:33:13;;;;;;;34.03;15.13;;;;;;;21.70;32.56;99561.16;5049517;28;20055;-22